sensor_id;sensor_type;location;lat;lon;timestamp;pressure;altitude;pressure_sealevel;temperature;humidity
70488;BME280;57976;48.174;16.370;2022-12-19T00:01:47;101059.40;;;-0.34;88.57
70488;BME280;57976;48.174;16.370;2022-12-19T00:03:52;101057.17;;;-0.35;88.55
70488;BME280;57976;48.174;16.370;2022-12-19T00:05:55;101059.66;;;-0.36;88.65
70488;BME280;57976;48.174;16.370;2022-12-19T00:07:58;101060.54;;;-0.36;88.68
70488;BME280;57976;48.174;16.370;2022-12-19T00:10:13;101060.04;;;-0.36;88.65
70488;BME280;57976;48.174;16.370;2022-12-19T00:12:16;101058.77;;;-0.38;88.46
70488;BME280;57976;48.174;16.370;2022-12-19T00:14:21;101061.28;;;-0.40;88.44
70488;BME280;57976;48.174;16.370;2022-12-19T00:16:26;101066.35;;;-0.40;88.51
70488;BME280;57976;48.174;16.370;2022-12-19T00:18:30;101068.37;;;-0.41;88.59
70488;BME280;57976;48.174;16.370;2022-12-19T00:20:33;101072.96;;;-0.42;88.61
70488;BME280;57976;48.174;16.370;2022-12-19T00:22:35;101066.79;;;-0.44;88.49
70488;BME280;57976;48.174;16.370;2022-12-19T00:24:38;101065.96;;;-0.44;88.66
70488;BME280;57976;48.174;16.370;2022-12-19T00:26:41;101059.99;;;-0.44;88.63
70488;BME280;57976;48.174;16.370;2022-12-19T00:28:46;101063.86;;;-0.44;88.56
70488;BME280;57976;48.174;16.370;2022-12-19T00:30:49;101062.05;;;-0.43;88.62
70488;BME280;57976;48.174;16.370;2022-12-19T00:32:53;101056.95;;;-0.43;88.56
70488;BME280;57976;48.174;16.370;2022-12-19T00:34:56;101050.61;;;-0.42;88.44
70488;BME280;57976;48.174;16.370;2022-12-19T00:37:01;101050.25;;;-0.42;88.31
70488;BME280;57976;48.174;16.370;2022-12-19T00:39:05;101050.80;;;-0.42;88.44
70488;BME280;57976;48.174;16.370;2022-12-19T00:41:12;101046.40;;;-0.41;88.30
70488;BME280;57976;48.174;16.370;2022-12-19T00:43:16;101047.55;;;-0.40;88.39
70488;BME280;57976;48.174;16.370;2022-12-19T00:45:18;101052.37;;;-0.39;88.32
70488;BME280;57976;48.174;16.370;2022-12-19T00:47:21;101054.51;;;-0.40;88.21
70488;BME280;57976;48.174;16.370;2022-12-19T00:49:24;101055.96;;;-0.41;88.27
70488;BME280;57976;48.174;16.370;2022-12-19T00:51:29;101059.68;;;-0.42;88.17
70488;BME280;57976;48.174;16.370;2022-12-19T00:53:32;101058.14;;;-0.39;88.30
70488;BME280;57976;48.174;16.370;2022-12-19T00:55:38;101059.13;;;-0.38;88.11
70488;BME280;57976;48.174;16.370;2022-12-19T00:57:41;101060.73;;;-0.38;88.02
70488;BME280;57976;48.174;16.370;2022-12-19T00:59:43;101061.20;;;-0.38;88.03
70488;BME280;57976;48.174;16.370;2022-12-19T01:01:46;101059.09;;;-0.38;88.17
70488;BME280;57976;48.174;16.370;2022-12-19T01:03:51;101053.09;;;-0.36;87.91
70488;BME280;57976;48.174;16.370;2022-12-19T01:06:17;101056.61;;;-0.37;87.85
70488;BME280;57976;48.174;16.370;2022-12-19T01:08:20;101059.11;;;-0.38;87.84
70488;BME280;57976;48.174;16.370;2022-12-19T01:10:24;101058.61;;;-0.38;87.81
70488;BME280;57976;48.174;16.370;2022-12-19T01:12:27;101043.08;;;-0.38;87.75
70488;BME280;57976;48.174;16.370;2022-12-19T01:14:30;101037.83;;;-0.38;87.61
70488;BME280;57976;48.174;16.370;2022-12-19T01:16:32;101030.13;;;-0.38;87.64
70488;BME280;57976;48.174;16.370;2022-12-19T01:18:35;101017.15;;;-0.37;87.63
70488;BME280;57976;48.174;16.370;2022-12-19T01:20:39;101014.35;;;-0.36;87.55
70488;BME280;57976;48.174;16.370;2022-12-19T01:22:42;101009.12;;;-0.37;87.41
70488;BME280;57976;48.174;16.370;2022-12-19T01:24:45;101000.55;;;-0.36;87.27
70488;BME280;57976;48.174;16.370;2022-12-19T01:26:50;100997.55;;;-0.36;87.32
70488;BME280;57976;48.174;16.370;2022-12-19T01:28:53;100994.19;;;-0.35;87.29
70488;BME280;57976;48.174;16.370;2022-12-19T01:30:56;100989.63;;;-0.35;87.20
70488;BME280;57976;48.174;16.370;2022-12-19T01:32:59;100984.71;;;-0.34;87.11
70488;BME280;57976;48.174;16.370;2022-12-19T01:35:03;100985.10;;;-0.35;87.07
70488;BME280;57976;48.174;16.370;2022-12-19T01:37:06;100977.48;;;-0.36;86.95
70488;BME280;57976;48.174;16.370;2022-12-19T01:39:09;100979.05;;;-0.36;86.91
70488;BME280;57976;48.174;16.370;2022-12-19T01:41:11;100978.58;;;-0.37;87.01
70488;BME280;57976;48.174;16.370;2022-12-19T01:43:14;100973.89;;;-0.34;86.98
70488;BME280;57976;48.174;16.370;2022-12-19T01:45:30;100974.45;;;-0.32;86.94
70488;BME280;57976;48.174;16.370;2022-12-19T01:47:45;100972.77;;;-0.33;86.84
70488;BME280;57976;48.174;16.370;2022-12-19T01:49:52;100971.43;;;-0.34;86.84
70488;BME280;57976;48.174;16.370;2022-12-19T01:51:58;100969.81;;;-0.33;86.78
70488;BME280;57976;48.174;16.370;2022-12-19T01:54:07;100968.61;;;-0.34;86.76
70488;BME280;57976;48.174;16.370;2022-12-19T01:56:12;100969.65;;;-0.33;86.74
70488;BME280;57976;48.174;16.370;2022-12-19T01:58:17;100963.58;;;-0.34;86.73
70488;BME280;57976;48.174;16.370;2022-12-19T02:00:20;100970.52;;;-0.33;86.74
70488;BME280;57976;48.174;16.370;2022-12-19T02:02:28;100972.13;;;-0.34;86.72
70488;BME280;57976;48.174;16.370;2022-12-19T02:04:31;100976.80;;;-0.33;86.63
70488;BME280;57976;48.174;16.370;2022-12-19T02:06:35;100976.77;;;-0.33;86.80
70488;BME280;57976;48.174;16.370;2022-12-19T02:08:41;100974.23;;;-0.31;86.91
70488;BME280;57976;48.174;16.370;2022-12-19T02:10:46;100970.88;;;-0.31;86.65
70488;BME280;57976;48.174;16.370;2022-12-19T02:12:49;100957.57;;;-0.30;86.79
70488;BME280;57976;48.174;16.370;2022-12-19T02:14:52;100942.70;;;-0.29;86.67
70488;BME280;57976;48.174;16.370;2022-12-19T02:17:06;100944.13;;;-0.30;86.48
70488;BME280;57976;48.174;16.370;2022-12-19T02:19:37;100953.46;;;-0.31;86.48
70488;BME280;57976;48.174;16.370;2022-12-19T02:21:49;100959.46;;;-0.32;86.57
70488;BME280;57976;48.174;16.370;2022-12-19T02:24:36;100958.48;;;-0.33;86.69
70488;BME280;57976;48.174;16.370;2022-12-19T02:26:59;100949.86;;;-0.32;86.68
70488;BME280;57976;48.174;16.370;2022-12-19T02:29:19;100955.65;;;-0.32;86.60
70488;BME280;57976;48.174;16.370;2022-12-19T02:31:28;100950.73;;;-0.35;86.56
70488;BME280;57976;48.174;16.370;2022-12-19T02:33:35;100945.69;;;-0.35;86.53
70488;BME280;57976;48.174;16.370;2022-12-19T02:35:44;100947.16;;;-0.36;86.62
70488;BME280;57976;48.174;16.370;2022-12-19T02:37:57;100944.11;;;-0.38;86.66
70488;BME280;57976;48.174;16.370;2022-12-19T02:40:08;100933.61;;;-0.38;86.67
70488;BME280;57976;48.174;16.370;2022-12-19T02:42:15;100928.80;;;-0.39;86.68
70488;BME280;57976;48.174;16.370;2022-12-19T02:44:24;100926.36;;;-0.39;86.69
70488;BME280;57976;48.174;16.370;2022-12-19T02:46:28;100922.42;;;-0.40;86.76
70488;BME280;57976;48.174;16.370;2022-12-19T02:48:31;100925.80;;;-0.41;86.83
70488;BME280;57976;48.174;16.370;2022-12-19T02:50:39;100926.35;;;-0.41;86.78
70488;BME280;57976;48.174;16.370;2022-12-19T02:52:47;100923.73;;;-0.42;86.77
70488;BME280;57976;48.174;16.370;2022-12-19T02:54:52;100922.69;;;-0.41;86.69
70488;BME280;57976;48.174;16.370;2022-12-19T02:57:03;100921.79;;;-0.41;86.70
70488;BME280;57976;48.174;16.370;2022-12-19T02:59:33;100920.56;;;-0.38;86.70
70488;BME280;57976;48.174;16.370;2022-12-19T03:01:46;100919.07;;;-0.37;86.72
70488;BME280;57976;48.174;16.370;2022-12-19T03:04:00;100920.74;;;-0.35;86.53
70488;BME280;57976;48.174;16.370;2022-12-19T03:06:11;100917.52;;;-0.34;86.58
70488;BME280;57976;48.174;16.370;2022-12-19T03:08:22;100918.66;;;-0.33;86.31
70488;BME280;57976;48.174;16.370;2022-12-19T03:10:33;100916.34;;;-0.32;86.54
70488;BME280;57976;48.174;16.370;2022-12-19T03:12:39;100917.32;;;-0.31;86.30
70488;BME280;57976;48.174;16.370;2022-12-19T03:14:46;100915.81;;;-0.29;86.39
70488;BME280;57976;48.174;16.370;2022-12-19T03:16:50;100922.95;;;-0.29;86.10
70488;BME280;57976;48.174;16.370;2022-12-19T03:18:54;100920.47;;;-0.28;86.20
70488;BME280;57976;48.174;16.370;2022-12-19T03:21:03;100919.27;;;-0.25;86.18
70488;BME280;57976;48.174;16.370;2022-12-19T03:23:08;100921.88;;;-0.23;85.99
70488;BME280;57976;48.174;16.370;2022-12-19T03:25:11;100924.19;;;-0.21;85.87
70488;BME280;57976;48.174;16.370;2022-12-19T03:27:19;100921.52;;;-0.17;85.79
70488;BME280;57976;48.174;16.370;2022-12-19T03:29:28;100921.65;;;-0.13;85.66
70488;BME280;57976;48.174;16.370;2022-12-19T03:31:32;100920.80;;;-0.11;85.55
70488;BME280;57976;48.174;16.370;2022-12-19T03:33:38;100925.02;;;-0.09;85.58
70488;BME280;57976;48.174;16.370;2022-12-19T03:35:43;100923.12;;;-0.07;85.48
70488;BME280;57976;48.174;16.370;2022-12-19T03:37:49;100929.71;;;-0.03;85.41
70488;BME280;57976;48.174;16.370;2022-12-19T03:39:58;100920.78;;;0.00;85.51
70488;BME280;57976;48.174;16.370;2022-12-19T03:42:04;100922.90;;;0.03;85.09
70488;BME280;57976;48.174;16.370;2022-12-19T03:44:09;100925.75;;;0.05;85.03
70488;BME280;57976;48.174;16.370;2022-12-19T03:46:17;100930.83;;;0.05;84.70
70488;BME280;57976;48.174;16.370;2022-12-19T03:48:28;100936.73;;;0.05;84.70
70488;BME280;57976;48.174;16.370;2022-12-19T03:50:37;100940.72;;;0.06;84.65
70488;BME280;57976;48.174;16.370;2022-12-19T03:52:49;100929.55;;;0.06;84.66
70488;BME280;57976;48.174;16.370;2022-12-19T03:55:01;100919.88;;;0.07;84.52
70488;BME280;57976;48.174;16.370;2022-12-19T03:57:09;100912.94;;;0.06;84.45
70488;BME280;57976;48.174;16.370;2022-12-19T03:59:17;100919.98;;;0.08;84.67
70488;BME280;57976;48.174;16.370;2022-12-19T04:01:21;100919.17;;;0.09;84.51
70488;BME280;57976;48.174;16.370;2022-12-19T04:03:26;100916.91;;;0.09;84.37
70488;BME280;57976;48.174;16.370;2022-12-19T04:05:31;100910.90;;;0.10;84.41
70488;BME280;57976;48.174;16.370;2022-12-19T04:07:34;100909.05;;;0.12;84.46
70488;BME280;57976;48.174;16.370;2022-12-19T04:09:38;100909.42;;;0.15;84.10
70488;BME280;57976;48.174;16.370;2022-12-19T04:11:48;100898.20;;;0.15;83.92
70488;BME280;57976;48.174;16.370;2022-12-19T04:13:56;100904.52;;;0.18;83.84
70488;BME280;57976;48.174;16.370;2022-12-19T04:16:08;100900.92;;;0.19;83.98
70488;BME280;57976;48.174;16.370;2022-12-19T04:18:14;100900.91;;;0.19;83.80
70488;BME280;57976;48.174;16.370;2022-12-19T04:20:19;100899.73;;;0.18;83.56
70488;BME280;57976;48.174;16.370;2022-12-19T04:22:28;100902.54;;;0.18;83.85
70488;BME280;57976;48.174;16.370;2022-12-19T04:24:34;100913.58;;;0.20;83.67
70488;BME280;57976;48.174;16.370;2022-12-19T04:26:39;100918.45;;;0.21;83.88
70488;BME280;57976;48.174;16.370;2022-12-19T04:28:46;100923.23;;;0.22;83.91
70488;BME280;57976;48.174;16.370;2022-12-19T04:30:50;100921.92;;;0.21;83.84
70488;BME280;57976;48.174;16.370;2022-12-19T04:32:54;100916.73;;;0.20;83.80
70488;BME280;57976;48.174;16.370;2022-12-19T04:34:56;100911.34;;;0.20;83.96
70488;BME280;57976;48.174;16.370;2022-12-19T04:36:59;100911.88;;;0.20;83.88
70488;BME280;57976;48.174;16.370;2022-12-19T04:39:03;100906.23;;;0.18;84.15
70488;BME280;57976;48.174;16.370;2022-12-19T04:41:06;100904.84;;;0.15;84.03
70488;BME280;57976;48.174;16.370;2022-12-19T04:43:09;100901.46;;;0.11;84.11
70488;BME280;57976;48.174;16.370;2022-12-19T04:45:12;100905.59;;;0.09;84.36
70488;BME280;57976;48.174;16.370;2022-12-19T04:47:15;100896.79;;;0.04;84.24
70488;BME280;57976;48.174;16.370;2022-12-19T04:49:17;100895.02;;;-0.01;84.73
70488;BME280;57976;48.174;16.370;2022-12-19T04:51:20;100900.34;;;-0.05;84.66
70488;BME280;57976;48.174;16.370;2022-12-19T04:53:23;100901.73;;;-0.10;84.92
70488;BME280;57976;48.174;16.370;2022-12-19T04:55:26;100898.50;;;-0.14;85.08
70488;BME280;57976;48.174;16.370;2022-12-19T04:57:29;100892.27;;;-0.18;85.33
70488;BME280;57976;48.174;16.370;2022-12-19T04:59:32;100886.64;;;-0.23;85.50
70488;BME280;57976;48.174;16.370;2022-12-19T05:01:38;100886.79;;;-0.28;85.78
70488;BME280;57976;48.174;16.370;2022-12-19T05:03:41;100885.21;;;-0.33;85.89
70488;BME280;57976;48.174;16.370;2022-12-19T05:05:44;100888.15;;;-0.39;86.15
70488;BME280;57976;48.174;16.370;2022-12-19T05:07:47;100891.23;;;-0.43;86.43
70488;BME280;57976;48.174;16.370;2022-12-19T05:09:50;100886.96;;;-0.48;86.53
70488;BME280;57976;48.174;16.370;2022-12-19T05:11:53;100880.64;;;-0.50;86.69
70488;BME280;57976;48.174;16.370;2022-12-19T05:13:56;100881.27;;;-0.52;86.97
70488;BME280;57976;48.174;16.370;2022-12-19T05:16:01;100880.51;;;-0.53;87.20
70488;BME280;57976;48.174;16.370;2022-12-19T05:18:04;100882.80;;;-0.57;87.40
70488;BME280;57976;48.174;16.370;2022-12-19T05:20:09;100885.48;;;-0.61;87.51
70488;BME280;57976;48.174;16.370;2022-12-19T05:22:12;100889.45;;;-0.63;87.75
70488;BME280;57976;48.174;16.370;2022-12-19T05:24:15;100886.27;;;-0.65;87.76
70488;BME280;57976;48.174;16.370;2022-12-19T05:26:18;100889.87;;;-0.67;87.79
70488;BME280;57976;48.174;16.370;2022-12-19T05:28:20;100894.55;;;-0.69;87.99
70488;BME280;57976;48.174;16.370;2022-12-19T05:30:23;100901.77;;;-0.70;88.33
70488;BME280;57976;48.174;16.370;2022-12-19T05:32:28;100901.80;;;-0.71;88.41
70488;BME280;57976;48.174;16.370;2022-12-19T05:34:31;100908.56;;;-0.74;88.47
70488;BME280;57976;48.174;16.370;2022-12-19T05:36:33;100907.63;;;-0.76;88.68
70488;BME280;57976;48.174;16.370;2022-12-19T05:38:36;100901.69;;;-0.75;88.73
70488;BME280;57976;48.174;16.370;2022-12-19T05:40:39;100894.33;;;-0.78;88.54
70488;BME280;57976;48.174;16.370;2022-12-19T05:42:41;100891.12;;;-0.80;88.74
70488;BME280;57976;48.174;16.370;2022-12-19T05:44:44;100895.66;;;-0.80;88.78
70488;BME280;57976;48.174;16.370;2022-12-19T05:46:47;100895.73;;;-0.81;88.97
70488;BME280;57976;48.174;16.370;2022-12-19T05:48:50;100902.05;;;-0.81;88.97
70488;BME280;57976;48.174;16.370;2022-12-19T05:50:53;100909.36;;;-0.81;88.93
70488;BME280;57976;48.174;16.370;2022-12-19T05:52:56;100909.58;;;-0.82;88.97
70488;BME280;57976;48.174;16.370;2022-12-19T05:54:58;100907.31;;;-0.82;89.16
70488;BME280;57976;48.174;16.370;2022-12-19T05:57:01;100902.23;;;-0.82;89.09
70488;BME280;57976;48.174;16.370;2022-12-19T05:59:04;100896.14;;;-0.82;89.30
70488;BME280;57976;48.174;16.370;2022-12-19T06:01:08;100899.56;;;-0.84;89.17
70488;BME280;57976;48.174;16.370;2022-12-19T06:03:11;100896.30;;;-0.87;89.19
70488;BME280;57976;48.174;16.370;2022-12-19T06:05:14;100902.45;;;-0.91;89.38
70488;BME280;57976;48.174;16.370;2022-12-19T06:07:18;100899.02;;;-0.95;89.69
70488;BME280;57976;48.174;16.370;2022-12-19T06:09:24;100896.68;;;-1.00;89.92
70488;BME280;57976;48.174;16.370;2022-12-19T06:11:27;100901.31;;;-1.04;89.93
70488;BME280;57976;48.174;16.370;2022-12-19T06:13:30;100908.02;;;-1.06;90.25
70488;BME280;57976;48.174;16.370;2022-12-19T06:15:33;100910.50;;;-1.09;90.21
70488;BME280;57976;48.174;16.370;2022-12-19T06:17:36;100912.38;;;-1.11;90.33
70488;BME280;57976;48.174;16.370;2022-12-19T06:19:38;100917.25;;;-1.14;90.37
70488;BME280;57976;48.174;16.370;2022-12-19T06:21:41;100920.77;;;-1.18;90.52
70488;BME280;57976;48.174;16.370;2022-12-19T06:23:54;100917.76;;;-1.17;90.83
70488;BME280;57976;48.174;16.370;2022-12-19T06:25:57;100921.30;;;-1.18;90.88
70488;BME280;57976;48.174;16.370;2022-12-19T06:28:00;100920.45;;;-1.18;91.22
70488;BME280;57976;48.174;16.370;2022-12-19T06:30:04;100912.39;;;-1.21;91.30
70488;BME280;57976;48.174;16.370;2022-12-19T06:32:07;100913.25;;;-1.21;91.25
70488;BME280;57976;48.174;16.370;2022-12-19T06:34:11;100912.17;;;-1.20;91.58
70488;BME280;57976;48.174;16.370;2022-12-19T06:36:26;100913.55;;;-1.20;91.76
70488;BME280;57976;48.174;16.370;2022-12-19T06:38:29;100915.14;;;-1.20;91.75
70488;BME280;57976;48.174;16.370;2022-12-19T06:40:32;100916.27;;;-1.21;91.85
70488;BME280;57976;48.174;16.370;2022-12-19T06:42:35;100914.94;;;-1.23;92.04
70488;BME280;57976;48.174;16.370;2022-12-19T06:44:38;100918.55;;;-1.25;92.23
70488;BME280;57976;48.174;16.370;2022-12-19T06:46:41;100920.11;;;-1.24;92.37
70488;BME280;57976;48.174;16.370;2022-12-19T06:48:44;100917.22;;;-1.23;92.35
70488;BME280;57976;48.174;16.370;2022-12-19T06:50:46;100914.13;;;-1.24;92.45
70488;BME280;57976;48.174;16.370;2022-12-19T06:52:49;100916.19;;;-1.20;92.38
70488;BME280;57976;48.174;16.370;2022-12-19T06:54:52;100925.98;;;-1.17;92.27
70488;BME280;57976;48.174;16.370;2022-12-19T06:56:54;100932.84;;;-1.16;92.29
70488;BME280;57976;48.174;16.370;2022-12-19T06:58:57;100939.31;;;-1.13;92.29
70488;BME280;57976;48.174;16.370;2022-12-19T07:01:00;100936.25;;;-1.08;92.34
70488;BME280;57976;48.174;16.370;2022-12-19T07:03:05;100939.90;;;-1.05;92.22
70488;BME280;57976;48.174;16.370;2022-12-19T07:05:12;100939.48;;;-1.04;92.08
70488;BME280;57976;48.174;16.370;2022-12-19T07:07:15;100944.39;;;-1.02;91.91
70488;BME280;57976;48.174;16.370;2022-12-19T07:09:17;100945.19;;;-1.03;91.77
70488;BME280;57976;48.174;16.370;2022-12-19T07:11:20;100940.36;;;-1.04;91.81
70488;BME280;57976;48.174;16.370;2022-12-19T07:13:23;100944.67;;;-1.03;91.82
70488;BME280;57976;48.174;16.370;2022-12-19T07:15:26;100950.16;;;-1.02;91.81
70488;BME280;57976;48.174;16.370;2022-12-19T07:17:29;100947.59;;;-1.03;91.81
70488;BME280;57976;48.174;16.370;2022-12-19T07:19:32;100949.61;;;-1.01;91.87
70488;BME280;57976;48.174;16.370;2022-12-19T07:21:36;100952.45;;;-0.99;91.85
70488;BME280;57976;48.174;16.370;2022-12-19T07:23:40;100952.29;;;-0.96;91.78
70488;BME280;57976;48.174;16.370;2022-12-19T07:25:43;100954.89;;;-0.93;91.73
70488;BME280;57976;48.174;16.370;2022-12-19T07:27:46;100959.21;;;-0.93;91.61
70488;BME280;57976;48.174;16.370;2022-12-19T07:29:49;100962.34;;;-0.93;91.87
70488;BME280;57976;48.174;16.370;2022-12-19T07:31:52;100968.00;;;-0.91;91.64
70488;BME280;57976;48.174;16.370;2022-12-19T07:33:55;100968.73;;;-0.91;91.79
70488;BME280;57976;48.174;16.370;2022-12-19T07:35:58;100971.95;;;-0.90;91.81
70488;BME280;57976;48.174;16.370;2022-12-19T07:38:04;100966.09;;;-0.88;92.01
70488;BME280;57976;48.174;16.370;2022-12-19T07:40:09;100964.06;;;-0.86;91.85
70488;BME280;57976;48.174;16.370;2022-12-19T07:42:12;100969.33;;;-0.84;91.98
70488;BME280;57976;48.174;16.370;2022-12-19T07:44:14;100979.50;;;-0.79;91.93
70488;BME280;57976;48.174;16.370;2022-12-19T07:46:17;100980.35;;;-0.76;91.78
70488;BME280;57976;48.174;16.370;2022-12-19T07:48:20;100980.86;;;-0.75;91.66
70488;BME280;57976;48.174;16.370;2022-12-19T07:50:22;100974.69;;;-0.74;91.67
70488;BME280;57976;48.174;16.370;2022-12-19T07:52:25;100979.48;;;-0.72;91.59
70488;BME280;57976;48.174;16.370;2022-12-19T07:54:28;100977.94;;;-0.70;91.78
70488;BME280;57976;48.174;16.370;2022-12-19T07:56:31;100979.16;;;-0.69;91.73
70488;BME280;57976;48.174;16.370;2022-12-19T07:58:34;100977.41;;;-0.67;91.89
70488;BME280;57976;48.174;16.370;2022-12-19T08:00:37;100976.27;;;-0.65;92.00
70488;BME280;57976;48.174;16.370;2022-12-19T08:02:40;100986.83;;;-0.64;91.78
70488;BME280;57976;48.174;16.370;2022-12-19T08:04:43;100990.41;;;-0.62;91.72
70488;BME280;57976;48.174;16.370;2022-12-19T08:06:45;100996.45;;;-0.58;91.86
70488;BME280;57976;48.174;16.370;2022-12-19T08:08:48;100995.39;;;-0.55;91.85
70488;BME280;57976;48.174;16.370;2022-12-19T08:10:51;100997.56;;;-0.51;91.94
70488;BME280;57976;48.174;16.370;2022-12-19T08:12:54;101001.76;;;-0.48;91.56
70488;BME280;57976;48.174;16.370;2022-12-19T08:14:56;101001.80;;;-0.45;91.49
70488;BME280;57976;48.174;16.370;2022-12-19T08:16:59;100999.68;;;-0.42;91.42
70488;BME280;57976;48.174;16.370;2022-12-19T08:19:22;100997.45;;;-0.40;91.35
70488;BME280;57976;48.174;16.370;2022-12-19T08:21:29;100997.57;;;-0.39;91.17
70488;BME280;57976;48.174;16.370;2022-12-19T08:23:33;101001.42;;;-0.36;91.30
70488;BME280;57976;48.174;16.370;2022-12-19T08:25:36;100994.95;;;-0.33;91.38
70488;BME280;57976;48.174;16.370;2022-12-19T08:27:38;100996.36;;;-0.28;91.43
70488;BME280;57976;48.174;16.370;2022-12-19T08:29:41;100995.52;;;-0.22;91.22
70488;BME280;57976;48.174;16.370;2022-12-19T08:31:44;101001.82;;;-0.17;91.05
70488;BME280;57976;48.174;16.370;2022-12-19T08:33:47;101004.67;;;-0.15;90.67
70488;BME280;57976;48.174;16.370;2022-12-19T08:35:50;101005.27;;;-0.16;90.48
70488;BME280;57976;48.174;16.370;2022-12-19T08:37:53;101001.98;;;-0.17;90.53
70488;BME280;57976;48.174;16.370;2022-12-19T08:39:55;101015.58;;;-0.14;90.86
70488;BME280;57976;48.174;16.370;2022-12-19T08:41:58;101019.55;;;-0.13;90.91
70488;BME280;57976;48.174;16.370;2022-12-19T08:44:01;101028.39;;;-0.12;90.55
70488;BME280;57976;48.174;16.370;2022-12-19T08:46:05;101026.38;;;-0.10;90.52
70488;BME280;57976;48.174;16.370;2022-12-19T08:48:08;101027.11;;;-0.08;90.54
70488;BME280;57976;48.174;16.370;2022-12-19T08:50:11;101028.49;;;-0.05;90.51
70488;BME280;57976;48.174;16.370;2022-12-19T08:52:14;101030.31;;;-0.00;90.48
70488;BME280;57976;48.174;16.370;2022-12-19T08:54:17;101033.36;;;0.04;90.10
70488;BME280;57976;48.174;16.370;2022-12-19T08:56:21;101028.77;;;0.08;90.08
70488;BME280;57976;48.174;16.370;2022-12-19T08:58:25;101028.11;;;0.13;89.95
70488;BME280;57976;48.174;16.370;2022-12-19T09:00:28;101018.73;;;0.15;89.51
70488;BME280;57976;48.174;16.370;2022-12-19T09:02:31;101019.29;;;0.15;89.40
70488;BME280;57976;48.174;16.370;2022-12-19T09:04:33;101018.71;;;0.12;89.30
70488;BME280;57976;48.174;16.370;2022-12-19T09:06:56;101010.70;;;0.09;89.06
70488;BME280;57976;48.174;16.370;2022-12-19T09:08:59;101012.11;;;0.07;89.10
70488;BME280;57976;48.174;16.370;2022-12-19T09:11:04;101020.92;;;0.05;89.25
70488;BME280;57976;48.174;16.370;2022-12-19T09:13:08;101027.27;;;0.07;89.45
70488;BME280;57976;48.174;16.370;2022-12-19T09:15:10;101025.49;;;0.10;89.27
70488;BME280;57976;48.174;16.370;2022-12-19T09:17:14;101025.05;;;0.15;89.42
70488;BME280;57976;48.174;16.370;2022-12-19T09:19:17;101027.10;;;0.21;89.26
70488;BME280;57976;48.174;16.370;2022-12-19T09:21:21;101025.95;;;0.25;89.01
70488;BME280;57976;48.174;16.370;2022-12-19T09:23:25;101026.45;;;0.26;88.73
70488;BME280;57976;48.174;16.370;2022-12-19T09:25:28;101023.58;;;0.24;88.27
70488;BME280;57976;48.174;16.370;2022-12-19T09:27:30;101029.55;;;0.21;88.13
70488;BME280;57976;48.174;16.370;2022-12-19T09:29:53;101033.11;;;0.22;88.55
70488;BME280;57976;48.174;16.370;2022-12-19T09:31:56;101037.98;;;0.26;88.67
70488;BME280;57976;48.174;16.370;2022-12-19T09:33:59;101043.23;;;0.31;88.86
70488;BME280;57976;48.174;16.370;2022-12-19T09:36:02;101040.35;;;0.35;88.45
70488;BME280;57976;48.174;16.370;2022-12-19T09:38:05;101036.14;;;0.38;88.44
70488;BME280;57976;48.174;16.370;2022-12-19T09:40:15;101034.41;;;0.44;88.27
70488;BME280;57976;48.174;16.370;2022-12-19T09:42:28;101027.88;;;0.45;87.73
70488;BME280;57976;48.174;16.370;2022-12-19T09:44:57;101016.05;;;0.41;87.47
70488;BME280;57976;48.174;16.370;2022-12-19T09:47:10;101012.81;;;0.40;87.90
70488;BME280;57976;48.174;16.370;2022-12-19T09:49:17;101016.47;;;0.40;87.77
70488;BME280;57976;48.174;16.370;2022-12-19T09:51:29;101021.23;;;0.45;87.91
70488;BME280;57976;48.174;16.370;2022-12-19T09:53:37;101024.75;;;0.47;87.85
70488;BME280;57976;48.174;16.370;2022-12-19T09:55:43;101027.34;;;0.50;87.72
70488;BME280;57976;48.174;16.370;2022-12-19T09:57:51;101026.09;;;0.54;87.61
70488;BME280;57976;48.174;16.370;2022-12-19T10:00:01;101023.23;;;0.55;87.54
70488;BME280;57976;48.174;16.370;2022-12-19T10:02:21;101017.77;;;0.55;87.33
70488;BME280;57976;48.174;16.370;2022-12-19T10:04:28;101018.42;;;0.59;87.50
70488;BME280;57976;48.174;16.370;2022-12-19T10:06:33;101020.20;;;0.61;87.04
70488;BME280;57976;48.174;16.370;2022-12-19T10:08:55;101025.15;;;0.63;87.11
70488;BME280;57976;48.174;16.370;2022-12-19T10:11:31;101037.74;;;0.63;86.74
70488;BME280;57976;48.174;16.370;2022-12-19T10:14:15;101044.66;;;0.61;86.93
70488;BME280;57976;48.174;16.370;2022-12-19T10:16:28;101048.23;;;0.60;86.72
70488;BME280;57976;48.174;16.370;2022-12-19T10:18:42;101049.57;;;0.61;87.12
70488;BME280;57976;48.174;16.370;2022-12-19T10:21:01;101049.21;;;0.61;87.03
70488;BME280;57976;48.174;16.370;2022-12-19T10:23:22;101050.76;;;0.58;86.86
70488;BME280;57976;48.174;16.370;2022-12-19T10:25:52;101056.21;;;0.58;86.97
70488;BME280;57976;48.174;16.370;2022-12-19T10:28:07;101053.65;;;0.60;87.07
70488;BME280;57976;48.174;16.370;2022-12-19T10:30:15;101052.59;;;0.60;86.94
70488;BME280;57976;48.174;16.370;2022-12-19T10:32:23;101047.50;;;0.60;86.71
70488;BME280;57976;48.174;16.370;2022-12-19T10:34:34;101040.39;;;0.59;86.65
70488;BME280;57976;48.174;16.370;2022-12-19T10:36:45;101039.55;;;0.59;86.89
70488;BME280;57976;48.174;16.370;2022-12-19T10:39:13;101034.36;;;0.61;86.89
70488;BME280;57976;48.174;16.370;2022-12-19T10:41:21;101023.95;;;0.62;87.01
70488;BME280;57976;48.174;16.370;2022-12-19T10:43:33;101016.17;;;0.66;87.17
70488;BME280;57976;48.174;16.370;2022-12-19T10:45:50;101018.01;;;0.71;86.80
70488;BME280;57976;48.174;16.370;2022-12-19T10:47:56;101013.69;;;0.72;86.70
70488;BME280;57976;48.174;16.370;2022-12-19T10:49:59;101012.06;;;0.76;87.03
70488;BME280;57976;48.174;16.370;2022-12-19T10:52:12;101013.02;;;0.78;86.73
70488;BME280;57976;48.174;16.370;2022-12-19T10:54:14;101015.42;;;0.82;86.95